sensor_id;sensor_type;location;lat;lon;timestamp;P1;durP1;ratioP1;P2;durP2;ratioP2
61188;SDS011;47054;39.716;2.904;2023-04-03T00:00:18;9.90;;;4.00;;
61188;SDS011;47054;39.716;2.904;2023-04-03T00:03:02;9.10;;;3.72;;
61188;SDS011;47054;39.716;2.904;2023-04-03T00:05:47;7.88;;;3.72;;
61188;SDS011;47054;39.716;2.904;2023-04-03T00:08:32;10.18;;;3.50;;
61188;SDS011;47054;39.716;2.904;2023-04-03T00:11:17;10.07;;;3.30;;
61188;SDS011;47054;39.716;2.904;2023-04-03T00:14:02;8.68;;;3.70;;
61188;SDS011;47054;39.716;2.904;2023-04-03T00:16:46;7.90;;;3.63;;
61188;SDS011;47054;39.716;2.904;2023-04-03T00:19:31;7.80;;;3.53;;
61188;SDS011;47054;39.716;2.904;2023-04-03T00:22:15;10.38;;;3.88;;
61188;SDS011;47054;39.716;2.904;2023-04-03T00:25:00;8.82;;;3.50;;
61188;SDS011;47054;39.716;2.904;2023-04-03T00:27:44;7.85;;;3.45;;
61188;SDS011;47054;39.716;2.904;2023-04-03T00:30:30;9.75;;;3.80;;
61188;SDS011;47054;39.716;2.904;2023-04-03T00:33:15;8.73;;;3.33;;
61188;SDS011;47054;39.716;2.904;2023-04-03T00:36:04;9.45;;;3.28;;
61188;SDS011;47054;39.716;2.904;2023-04-03T00:38:50;9.60;;;3.80;;
61188;SDS011;47054;39.716;2.904;2023-04-03T00:41:34;8.65;;;3.25;;
61188;SDS011;47054;39.716;2.904;2023-04-03T00:45:22;8.20;;;3.10;;
61188;SDS011;47054;39.716;2.904;2023-04-03T00:47:30;8.48;;;3.45;;
61188;SDS011;47054;39.716;2.904;2023-04-03T00:50:15;8.63;;;3.30;;
61188;SDS011;47054;39.716;2.904;2023-04-03T00:53:00;7.82;;;3.00;;
61188;SDS011;47054;39.716;2.904;2023-04-03T00:55:45;8.35;;;3.40;;
61188;SDS011;47054;39.716;2.904;2023-04-03T00:58:33;5.78;;;2.80;;
61188;SDS011;47054;39.716;2.904;2023-04-03T01:01:32;7.20;;;3.10;;
61188;SDS011;47054;39.716;2.904;2023-04-03T01:04:31;9.43;;;3.13;;
61188;SDS011;47054;39.716;2.904;2023-04-03T01:07:17;6.70;;;2.78;;
61188;SDS011;47054;39.716;2.904;2023-04-03T01:10:07;7.22;;;2.90;;
61188;SDS011;47054;39.716;2.904;2023-04-03T01:12:53;4.95;;;2.80;;
61188;SDS011;47054;39.716;2.904;2023-04-03T01:15:38;6.75;;;2.80;;
61188;SDS011;47054;39.716;2.904;2023-04-03T01:18:24;6.05;;;2.67;;
61188;SDS011;47054;39.716;2.904;2023-04-03T01:24:25;8.43;;;3.03;;
61188;SDS011;47054;39.716;2.904;2023-04-03T01:27:16;6.15;;;2.70;;
61188;SDS011;47054;39.716;2.904;2023-04-03T01:30:01;5.53;;;2.75;;
61188;SDS011;47054;39.716;2.904;2023-04-03T01:32:47;8.70;;;3.00;;
61188;SDS011;47054;39.716;2.904;2023-04-03T01:35:31;6.95;;;3.05;;
61188;SDS011;47054;39.716;2.904;2023-04-03T01:38:15;6.07;;;2.80;;
61188;SDS011;47054;39.716;2.904;2023-04-03T01:41:00;5.03;;;2.30;;
61188;SDS011;47054;39.716;2.904;2023-04-03T01:43:46;6.30;;;2.42;;
61188;SDS011;47054;39.716;2.904;2023-04-03T01:46:32;5.32;;;2.50;;
61188;SDS011;47054;39.716;2.904;2023-04-03T01:49:16;5.03;;;2.25;;
61188;SDS011;47054;39.716;2.904;2023-04-03T01:52:01;6.43;;;2.55;;
61188;SDS011;47054;39.716;2.904;2023-04-03T01:54:45;7.78;;;2.50;;
61188;SDS011;47054;39.716;2.904;2023-04-03T01:57:30;5.70;;;2.50;;
61188;SDS011;47054;39.716;2.904;2023-04-03T02:00:15;5.35;;;2.20;;
61188;SDS011;47054;39.716;2.904;2023-04-03T02:03:00;5.70;;;2.50;;
61188;SDS011;47054;39.716;2.904;2023-04-03T02:05:45;6.60;;;2.42;;
61188;SDS011;47054;39.716;2.904;2023-04-03T02:08:30;4.82;;;2.10;;
61188;SDS011;47054;39.716;2.904;2023-04-03T02:11:15;5.20;;;2.20;;
61188;SDS011;47054;39.716;2.904;2023-04-03T02:14:00;4.32;;;2.00;;
61188;SDS011;47054;39.716;2.904;2023-04-03T02:16:44;4.28;;;2.17;;
61188;SDS011;47054;39.716;2.904;2023-04-03T02:19:29;4.70;;;2.13;;
61188;SDS011;47054;39.716;2.904;2023-04-03T02:22:14;4.15;;;1.85;;
61188;SDS011;47054;39.716;2.904;2023-04-03T02:24:59;5.93;;;2.10;;
61188;SDS011;47054;39.716;2.904;2023-04-03T02:27:44;5.05;;;2.15;;
61188;SDS011;47054;39.716;2.904;2023-04-03T02:30:29;3.88;;;1.92;;
61188;SDS011;47054;39.716;2.904;2023-04-03T02:33:14;3.25;;;1.80;;
61188;SDS011;47054;39.716;2.904;2023-04-03T02:35:59;4.50;;;2.25;;
61188;SDS011;47054;39.716;2.904;2023-04-03T02:38:44;4.88;;;2.40;;
61188;SDS011;47054;39.716;2.904;2023-04-03T02:41:29;4.80;;;1.92;;
61188;SDS011;47054;39.716;2.904;2023-04-03T02:44:19;4.55;;;1.70;;
61188;SDS011;47054;39.716;2.904;2023-04-03T02:47:04;3.10;;;1.70;;
61188;SDS011;47054;39.716;2.904;2023-04-03T02:49:49;4.40;;;2.10;;
61188;SDS011;47054;39.716;2.904;2023-04-03T02:52:34;4.65;;;2.08;;
61188;SDS011;47054;39.716;2.904;2023-04-03T02:55:19;4.60;;;1.98;;
61188;SDS011;47054;39.716;2.904;2023-04-03T02:58:07;4.80;;;2.13;;
61188;SDS011;47054;39.716;2.904;2023-04-03T03:00:51;5.20;;;1.75;;
61188;SDS011;47054;39.716;2.904;2023-04-03T03:03:37;5.43;;;1.85;;
61188;SDS011;47054;39.716;2.904;2023-04-03T03:06:21;5.13;;;2.00;;
61188;SDS011;47054;39.716;2.904;2023-04-03T03:09:06;5.65;;;1.80;;
61188;SDS011;47054;39.716;2.904;2023-04-03T03:11:50;6.22;;;1.83;;
61188;SDS011;47054;39.716;2.904;2023-04-03T03:14:35;4.25;;;2.00;;
61188;SDS011;47054;39.716;2.904;2023-04-03T03:17:20;4.85;;;2.00;;
61188;SDS011;47054;39.716;2.904;2023-04-03T03:20:05;4.25;;;1.75;;
61188;SDS011;47054;39.716;2.904;2023-04-03T03:22:50;3.53;;;1.77;;
61188;SDS011;47054;39.716;2.904;2023-04-03T03:25:38;3.72;;;1.63;;
61188;SDS011;47054;39.716;2.904;2023-04-03T03:28:25;5.25;;;2.28;;
61188;SDS011;47054;39.716;2.904;2023-04-03T03:31:10;3.80;;;1.75;;
61188;SDS011;47054;39.716;2.904;2023-04-03T03:33:57;4.40;;;2.08;;
61188;SDS011;47054;39.716;2.904;2023-04-03T03:36:41;3.65;;;1.65;;
61188;SDS011;47054;39.716;2.904;2023-04-03T03:39:26;4.93;;;2.03;;
61188;SDS011;47054;39.716;2.904;2023-04-03T03:42:11;3.53;;;1.63;;
61188;SDS011;47054;39.716;2.904;2023-04-03T03:44:55;3.83;;;1.38;;
61188;SDS011;47054;39.716;2.904;2023-04-03T03:47:40;3.38;;;1.50;;
61188;SDS011;47054;39.716;2.904;2023-04-03T03:50:24;3.40;;;1.65;;
61188;SDS011;47054;39.716;2.904;2023-04-03T03:53:09;4.43;;;1.50;;
61188;SDS011;47054;39.716;2.904;2023-04-03T03:55:54;3.70;;;1.65;;
61188;SDS011;47054;39.716;2.904;2023-04-03T03:58:42;3.67;;;1.60;;
61188;SDS011;47054;39.716;2.904;2023-04-03T04:01:26;2.85;;;1.42;;
61188;SDS011;47054;39.716;2.904;2023-04-03T04:04:10;4.75;;;1.40;;
61188;SDS011;47054;39.716;2.904;2023-04-03T04:06:55;4.28;;;1.63;;
61188;SDS011;47054;39.716;2.904;2023-04-03T04:09:40;3.72;;;1.40;;
61188;SDS011;47054;39.716;2.904;2023-04-03T04:12:26;4.13;;;1.60;;
61188;SDS011;47054;39.716;2.904;2023-04-03T04:15:11;2.38;;;1.38;;
61188;SDS011;47054;39.716;2.904;2023-04-03T04:17:56;4.35;;;1.55;;
61188;SDS011;47054;39.716;2.904;2023-04-03T04:20:41;4.22;;;1.70;;
61188;SDS011;47054;39.716;2.904;2023-04-03T04:23:26;3.22;;;1.42;;
61188;SDS011;47054;39.716;2.904;2023-04-03T04:26:11;4.13;;;1.60;;
61188;SDS011;47054;39.716;2.904;2023-04-03T04:28:57;3.90;;;1.60;;
61188;SDS011;47054;39.716;2.904;2023-04-03T04:31:41;3.55;;;1.30;;
61188;SDS011;47054;39.716;2.904;2023-04-03T04:34:26;3.97;;;1.70;;
61188;SDS011;47054;39.716;2.904;2023-04-03T04:37:11;3.50;;;1.38;;
61188;SDS011;47054;39.716;2.904;2023-04-03T04:39:56;3.28;;;1.30;;
61188;SDS011;47054;39.716;2.904;2023-04-03T04:42:41;4.55;;;1.90;;
61188;SDS011;47054;39.716;2.904;2023-04-03T04:45:25;8.50;;;2.42;;
61188;SDS011;47054;39.716;2.904;2023-04-03T04:48:10;6.45;;;2.20;;
61188;SDS011;47054;39.716;2.904;2023-04-03T04:50:55;8.77;;;3.22;;
61188;SDS011;47054;39.716;2.904;2023-04-03T04:53:41;8.27;;;2.85;;
61188;SDS011;47054;39.716;2.904;2023-04-03T04:56:29;5.72;;;2.72;;
61188;SDS011;47054;39.716;2.904;2023-04-03T04:59:15;10.27;;;2.88;;
61188;SDS011;47054;39.716;2.904;2023-04-03T05:01:59;8.23;;;2.45;;
61188;SDS011;47054;39.716;2.904;2023-04-03T05:04:45;8.82;;;3.50;;
61188;SDS011;47054;39.716;2.904;2023-04-03T05:07:36;11.77;;;3.63;;
61188;SDS011;47054;39.716;2.904;2023-04-03T05:10:21;9.52;;;4.00;;
61188;SDS011;47054;39.716;2.904;2023-04-03T05:13:06;19.50;;;6.32;;
61188;SDS011;47054;39.716;2.904;2023-04-03T05:15:50;21.23;;;7.53;;
61188;SDS011;47054;39.716;2.904;2023-04-03T05:18:35;16.58;;;6.82;;
61188;SDS011;47054;39.716;2.904;2023-04-03T05:21:25;19.45;;;7.15;;
61188;SDS011;47054;39.716;2.904;2023-04-03T05:24:12;19.33;;;7.47;;
61188;SDS011;47054;39.716;2.904;2023-04-03T05:27:00;18.48;;;6.90;;
61188;SDS011;47054;39.716;2.904;2023-04-03T05:29:46;20.67;;;7.07;;
61188;SDS011;47054;39.716;2.904;2023-04-03T05:32:35;21.00;;;7.85;;
61188;SDS011;47054;39.716;2.904;2023-04-03T05:35:42;19.70;;;7.75;;
61188;SDS011;47054;39.716;2.904;2023-04-03T05:38:32;18.60;;;7.80;;
61188;SDS011;47054;39.716;2.904;2023-04-03T05:41:17;19.65;;;7.18;;
61188;SDS011;47054;39.716;2.904;2023-04-03T05:44:04;17.88;;;6.95;;
61188;SDS011;47054;39.716;2.904;2023-04-03T05:46:49;21.88;;;7.65;;
61188;SDS011;47054;39.716;2.904;2023-04-03T05:49:33;19.27;;;7.88;;
61188;SDS011;47054;39.716;2.904;2023-04-03T05:55:08;23.30;;;8.30;;
61188;SDS011;47054;39.716;2.904;2023-04-03T05:57:53;22.58;;;8.23;;
61188;SDS011;47054;39.716;2.904;2023-04-03T06:00:38;20.40;;;8.32;;
61188;SDS011;47054;39.716;2.904;2023-04-03T06:03:24;24.08;;;8.07;;
61188;SDS011;47054;39.716;2.904;2023-04-03T06:06:11;23.45;;;8.75;;
61188;SDS011;47054;39.716;2.904;2023-04-03T06:08:58;23.45;;;8.23;;
61188;SDS011;47054;39.716;2.904;2023-04-03T06:11:42;21.88;;;8.25;;
61188;SDS011;47054;39.716;2.904;2023-04-03T06:14:28;21.73;;;8.55;;
61188;SDS011;47054;39.716;2.904;2023-04-03T06:17:12;20.00;;;7.85;;
61188;SDS011;47054;39.716;2.904;2023-04-03T06:19:57;19.83;;;8.25;;
61188;SDS011;47054;39.716;2.904;2023-04-03T06:22:42;21.23;;;7.65;;
61188;SDS011;47054;39.716;2.904;2023-04-03T06:25:29;20.58;;;7.97;;
61188;SDS011;47054;39.716;2.904;2023-04-03T06:28:15;18.13;;;7.70;;
61188;SDS011;47054;39.716;2.904;2023-04-03T06:31:00;20.00;;;7.55;;
61188;SDS011;47054;39.716;2.904;2023-04-03T06:33:44;23.38;;;8.20;;
61188;SDS011;47054;39.716;2.904;2023-04-03T06:36:29;18.90;;;7.93;;
61188;SDS011;47054;39.716;2.904;2023-04-03T06:39:18;18.48;;;7.20;;
61188;SDS011;47054;39.716;2.904;2023-04-03T06:42:07;20.38;;;7.97;;
61188;SDS011;47054;39.716;2.904;2023-04-03T06:44:56;16.85;;;7.07;;
61188;SDS011;47054;39.716;2.904;2023-04-03T06:47:41;17.30;;;6.70;;
61188;SDS011;47054;39.716;2.904;2023-04-03T06:50:26;20.08;;;7.55;;
61188;SDS011;47054;39.716;2.904;2023-04-03T06:53:11;18.38;;;6.80;;
61188;SDS011;47054;39.716;2.904;2023-04-03T06:55:56;16.52;;;6.57;;
61188;SDS011;47054;39.716;2.904;2023-04-03T06:58:40;15.68;;;7.13;;
61188;SDS011;47054;39.716;2.904;2023-04-03T07:01:26;17.58;;;6.68;;
61188;SDS011;47054;39.716;2.904;2023-04-03T07:04:12;18.88;;;7.18;;
61188;SDS011;47054;39.716;2.904;2023-04-03T07:06:57;16.92;;;7.25;;
61188;SDS011;47054;39.716;2.904;2023-04-03T07:09:41;17.88;;;7.22;;
61188;SDS011;47054;39.716;2.904;2023-04-03T07:12:26;18.42;;;7.65;;
61188;SDS011;47054;39.716;2.904;2023-04-03T07:15:11;21.50;;;8.18;;
61188;SDS011;47054;39.716;2.904;2023-04-03T07:17:56;19.83;;;7.28;;
61188;SDS011;47054;39.716;2.904;2023-04-03T07:20:41;18.98;;;7.40;;
61188;SDS011;47054;39.716;2.904;2023-04-03T07:23:26;17.77;;;6.93;;
61188;SDS011;47054;39.716;2.904;2023-04-03T07:26:10;19.40;;;7.53;;
61188;SDS011;47054;39.716;2.904;2023-04-03T07:28:55;18.73;;;7.57;;
61188;SDS011;47054;39.716;2.904;2023-04-03T07:31:39;21.20;;;7.80;;
61188;SDS011;47054;39.716;2.904;2023-04-03T07:34:25;19.25;;;7.90;;
61188;SDS011;47054;39.716;2.904;2023-04-03T07:37:10;20.73;;;7.55;;
61188;SDS011;47054;39.716;2.904;2023-04-03T07:39:55;18.52;;;7.03;;
61188;SDS011;47054;39.716;2.904;2023-04-03T07:42:41;19.38;;;8.38;;
61188;SDS011;47054;39.716;2.904;2023-04-03T07:45:25;18.58;;;7.90;;
61188;SDS011;47054;39.716;2.904;2023-04-03T07:48:11;19.80;;;7.93;;
61188;SDS011;47054;39.716;2.904;2023-04-03T07:50:59;17.05;;;7.25;;
61188;SDS011;47054;39.716;2.904;2023-04-03T07:53:44;18.85;;;7.60;;
61188;SDS011;47054;39.716;2.904;2023-04-03T07:56:30;16.77;;;7.22;;
61188;SDS011;47054;39.716;2.904;2023-04-03T07:59:16;14.57;;;6.40;;
61188;SDS011;47054;39.716;2.904;2023-04-03T08:02:00;18.30;;;7.25;;
61188;SDS011;47054;39.716;2.904;2023-04-03T08:04:45;17.30;;;7.18;;
61188;SDS011;47054;39.716;2.904;2023-04-03T08:07:30;15.90;;;6.78;;
61188;SDS011;47054;39.716;2.904;2023-04-03T08:10:14;17.13;;;6.72;;
61188;SDS011;47054;39.716;2.904;2023-04-03T08:12:59;17.27;;;7.07;;
61188;SDS011;47054;39.716;2.904;2023-04-03T08:15:44;16.88;;;7.00;;
61188;SDS011;47054;39.716;2.904;2023-04-03T08:18:29;15.55;;;6.40;;
61188;SDS011;47054;39.716;2.904;2023-04-03T08:21:13;17.42;;;6.50;;
61188;SDS011;47054;39.716;2.904;2023-04-03T08:23:58;14.10;;;5.93;;
61188;SDS011;47054;39.716;2.904;2023-04-03T08:26:42;16.88;;;6.00;;
61188;SDS011;47054;39.716;2.904;2023-04-03T08:29:27;18.02;;;6.57;;
61188;SDS011;47054;39.716;2.904;2023-04-03T08:32:11;14.18;;;5.82;;
61188;SDS011;47054;39.716;2.904;2023-04-03T08:34:56;16.35;;;6.22;;
61188;SDS011;47054;39.716;2.904;2023-04-03T08:37:40;16.70;;;6.28;;
61188;SDS011;47054;39.716;2.904;2023-04-03T08:40:25;13.85;;;5.85;;
61188;SDS011;47054;39.716;2.904;2023-04-03T08:43:27;13.93;;;6.35;;
61188;SDS011;47054;39.716;2.904;2023-04-03T08:46:20;12.75;;;5.78;;
61188;SDS011;47054;39.716;2.904;2023-04-03T08:49:11;13.80;;;5.97;;
61188;SDS011;47054;39.716;2.904;2023-04-03T08:52:11;15.40;;;5.85;;
61188;SDS011;47054;39.716;2.904;2023-04-03T08:55:00;12.85;;;5.88;;
61188;SDS011;47054;39.716;2.904;2023-04-03T08:57:50;11.35;;;5.50;;
61188;SDS011;47054;39.716;2.904;2023-04-03T09:03:39;13.75;;;5.90;;
61188;SDS011;47054;39.716;2.904;2023-04-03T09:06:31;13.02;;;5.53;;
61188;SDS011;47054;39.716;2.904;2023-04-03T09:12:19;13.25;;;5.80;;
61188;SDS011;47054;39.716;2.904;2023-04-03T09:15:15;12.80;;;5.63;;
61188;SDS011;47054;39.716;2.904;2023-04-03T09:18:12;12.43;;;5.43;;
61188;SDS011;47054;39.716;2.904;2023-04-03T09:21:08;10.88;;;5.07;;
61188;SDS011;47054;39.716;2.904;2023-04-03T09:24:02;12.73;;;5.35;;
61188;SDS011;47054;39.716;2.904;2023-04-03T09:27:01;14.45;;;5.05;;
61188;SDS011;47054;39.716;2.904;2023-04-03T09:29:52;12.88;;;4.93;;
61188;SDS011;47054;39.716;2.904;2023-04-03T09:32:38;14.25;;;5.43;;
61188;SDS011;47054;39.716;2.904;2023-04-03T09:35:24;11.93;;;5.32;;
61188;SDS011;47054;39.716;2.904;2023-04-03T09:41:16;13.65;;;5.72;;
61188;SDS011;47054;39.716;2.904;2023-04-03T09:44:02;14.13;;;5.80;;
61188;SDS011;47054;39.716;2.904;2023-04-03T09:46:46;12.05;;;5.15;;
61188;SDS011;47054;39.716;2.904;2023-04-03T09:49:31;12.32;;;5.38;;
61188;SDS011;47054;39.716;2.904;2023-04-03T09:52:20;14.45;;;5.60;;
61188;SDS011;47054;39.716;2.904;2023-04-03T09:55:13;14.55;;;6.07;;
61188;SDS011;47054;39.716;2.904;2023-04-03T09:58:03;14.15;;;5.82;;
61188;SDS011;47054;39.716;2.904;2023-04-03T10:00:59;16.25;;;6.05;;
61188;SDS011;47054;39.716;2.904;2023-04-03T10:03:45;11.20;;;4.90;;
61188;SDS011;47054;39.716;2.904;2023-04-03T10:06:31;12.98;;;5.40;;
61188;SDS011;47054;39.716;2.904;2023-04-03T10:12:12;17.88;;;6.57;;
61188;SDS011;47054;39.716;2.904;2023-04-03T10:14:59;14.90;;;6.20;;
61188;SDS011;47054;39.716;2.904;2023-04-03T10:18:05;16.60;;;6.68;;
61188;SDS011;47054;39.716;2.904;2023-04-03T10:21:55;19.83;;;7.78;;
61188;SDS011;47054;39.716;2.904;2023-04-03T10:27:55;18.08;;;7.72;;
61188;SDS011;47054;39.716;2.904;2023-04-03T10:34:35;24.48;;;8.77;;
61188;SDS011;47054;39.716;2.904;2023-04-03T10:37:26;18.70;;;7.95;;
61188;SDS011;47054;39.716;2.904;2023-04-03T10:40:30;20.63;;;8.75;;
61188;SDS011;47054;39.716;2.904;2023-04-03T10:46:23;21.95;;;8.80;;
61188;SDS011;47054;39.716;2.904;2023-04-03T10:58:04;20.55;;;8.82;;
61188;SDS011;47054;39.716;2.904;2023-04-03T11:00:50;22.70;;;8.77;;
61188;SDS011;47054;39.716;2.904;2023-04-03T11:03:38;21.92;;;8.65;;
61188;SDS011;47054;39.716;2.904;2023-04-03T11:06:48;21.17;;;8.23;;
61188;SDS011;47054;39.716;2.904;2023-04-03T11:09:38;22.48;;;8.63;;
61188;SDS011;47054;39.716;2.904;2023-04-03T11:15:53;21.67;;;8.80;;
61188;SDS011;47054;39.716;2.904;2023-04-03T11:18:44;21.75;;;8.40;;
61188;SDS011;47054;39.716;2.904;2023-04-03T11:21:42;19.20;;;7.70;;
61188;SDS011;47054;39.716;2.904;2023-04-03T11:24:32;19.40;;;8.60;;
61188;SDS011;47054;39.716;2.904;2023-04-03T11:27:20;22.67;;;8.18;;
61188;SDS011;47054;39.716;2.904;2023-04-03T11:30:09;23.63;;;9.40;;
61188;SDS011;47054;39.716;2.904;2023-04-03T11:36:19;22.20;;;9.15;;
61188;SDS011;47054;39.716;2.904;2023-04-03T11:45:17;27.58;;;9.82;;
61188;SDS011;47054;39.716;2.904;2023-04-03T11:57:22;32.33;;;12.57;;
61188;SDS011;47054;39.716;2.904;2023-04-03T12:03:32;21.52;;;10.05;;
61188;SDS011;47054;39.716;2.904;2023-04-03T12:12:36;29.45;;;11.55;;
61188;SDS011;47054;39.716;2.904;2023-04-03T12:15:42;27.52;;;10.88;;
61188;SDS011;47054;39.716;2.904;2023-04-03T12:18:43;25.05;;;10.40;;
61188;SDS011;47054;39.716;2.904;2023-04-03T12:24:30;21.63;;;9.57;;
61188;SDS011;47054;39.716;2.904;2023-04-03T12:27:17;28.52;;;12.30;;
61188;SDS011;47054;39.716;2.904;2023-04-03T12:30:19;24.03;;;10.57;;
61188;SDS011;47054;39.716;2.904;2023-04-03T12:33:13;23.65;;;10.23;;
61188;SDS011;47054;39.716;2.904;2023-04-03T12:43:02;23.30;;;10.20;;
61188;SDS011;47054;39.716;2.904;2023-04-03T12:46:13;26.20;;;10.90;;
61188;SDS011;47054;39.716;2.904;2023-04-03T12:49:01;25.55;;;11.75;;
61188;SDS011;47054;39.716;2.904;2023-04-03T12:51:46;27.25;;;11.70;;
61188;SDS011;47054;39.716;2.904;2023-04-03T12:54:35;27.27;;;11.38;;
61188;SDS011;47054;39.716;2.904;2023-04-03T12:57:23;26.90;;;11.90;;
61188;SDS011;47054;39.716;2.904;2023-04-03T13:00:30;26.58;;;11.75;;
61188;SDS011;47054;39.716;2.904;2023-04-03T13:03:24;26.08;;;11.57;;
61188;SDS011;47054;39.716;2.904;2023-04-03T13:06:14;24.13;;;11.02;;
61188;SDS011;47054;39.716;2.904;2023-04-03T13:09:03;21.90;;;10.77;;
61188;SDS011;47054;39.716;2.904;2023-04-03T13:11:50;22.55;;;10.80;;
61188;SDS011;47054;39.716;2.904;2023-04-03T13:14:40;23.40;;;10.70;;
61188;SDS011;47054;39.716;2.904;2023-04-03T13:17:37;26.65;;;11.07;;
61188;SDS011;47054;39.716;2.904;2023-04-03T13:20:30;23.33;;;10.43;;
61188;SDS011;47054;39.716;2.904;2023-04-03T13:23:19;26.10;;;10.80;;
61188;SDS011;47054;39.716;2.904;2023-04-03T13:26:05;25.05;;;10.85;;
61188;SDS011;47054;39.716;2.904;2023-04-03T13:28:51;24.30;;;10.82;;
61188;SDS011;47054;39.716;2.904;2023-04-03T13:31:37;25.20;;;11.45;;
61188;SDS011;47054;39.716;2.904;2023-04-03T13:34:24;25.48;;;11.35;;
61188;SDS011;47054;39.716;2.904;2023-04-03T13:37:52;26.92;;;11.63;;
61188;SDS011;47054;39.716;2.904;2023-04-03T13:40:23;24.15;;;11.55;;
61188;SDS011;47054;39.716;2.904;2023-04-03T13:43:22;22.90;;;10.07;;
61188;SDS011;47054;39.716;2.904;2023-04-03T13:48:54;24.77;;;11.43;;
61188;SDS011;47054;39.716;2.904;2023-04-03T13:51:40;22.17;;;10.68;;
61188;SDS011;47054;39.716;2.904;2023-04-03T13:54:30;23.17;;;10.93;;
61188;SDS011;47054;39.716;2.904;2023-04-03T13:57:18;23.20;;;10.40;;
61188;SDS011;47054;39.716;2.904;2023-04-03T14:00:19;25.05;;;10.90;;
61188;SDS011;47054;39.716;2.904;2023-04-03T14:06:27;23.80;;;10.55;;
61188;SDS011;47054;39.716;2.904;2023-04-03T14:09:13;20.88;;;10.27;;
61188;SDS011;47054;39.716;2.904;2023-04-03T14:12:00;20.67;;;10.23;;
61188;SDS011;47054;39.716;2.904;2023-04-03T14:14:50;20.52;;;9.93;;
61188;SDS011;47054;39.716;2.904;2023-04-03T14:17:34;21.83;;;9.73;;
61188;SDS011;47054;39.716;2.904;2023-04-03T14:20:20;21.10;;;10.02;;
61188;SDS011;47054;39.716;2.904;2023-04-03T14:23:07;18.67;;;9.43;;
61188;SDS011;47054;39.716;2.904;2023-04-03T14:25:51;23.42;;;9.40;;
61188;SDS011;47054;39.716;2.904;2023-04-03T14:28:37;20.05;;;9.25;;
61188;SDS011;47054;39.716;2.904;2023-04-03T14:31:23;21.05;;;9.18;;
61188;SDS011;47054;39.716;2.904;2023-04-03T14:34:09;19.65;;;9.57;;
61188;SDS011;47054;39.716;2.904;2023-04-03T14:36:57;22.83;;;9.18;;
61188;SDS011;47054;39.716;2.904;2023-04-03T14:39:42;20.75;;;9.82;;
61188;SDS011;47054;39.716;2.904;2023-04-03T14:42:32;22.38;;;10.13;;
61188;SDS011;47054;39.716;2.904;2023-04-03T14:45:19;21.92;;;11.13;;
61188;SDS011;47054;39.716;2.904;2023-04-03T14:48:03;20.27;;;10.32;;
61188;SDS011;47054;39.716;2.904;2023-04-03T14:50:49;20.05;;;10.02;;
61188;SDS011;47054;39.716;2.904;2023-04-03T14:53:35;27.60;;;13.05;;
61188;SDS011;47054;39.716;2.904;2023-04-03T14:56:21;25.20;;;10.70;;
61188;SDS011;47054;39.716;2.904;2023-04-03T14:59:11;20.77;;;10.68;;
61188;SDS011;47054;39.716;2.904;2023-04-03T15:01:56;25.20;;;11.55;;
61188;SDS011;47054;39.716;2.904;2023-04-03T15:04:41;23.38;;;10.52;;
61188;SDS011;47054;39.716;2.904;2023-04-03T15:07:27;21.98;;;10.02;;
61188;SDS011;47054;39.716;2.904;2023-04-03T15:12:57;20.13;;;10.25;;
61188;SDS011;47054;39.716;2.904;2023-04-03T15:15:42;22.30;;;10.63;;
61188;SDS011;47054;39.716;2.904;2023-04-03T15:18:27;20.02;;;10.57;;
61188;SDS011;47054;39.716;2.904;2023-04-03T15:21:17;18.95;;;9.45;;
61188;SDS011;47054;39.716;2.904;2023-04-03T15:24:01;24.00;;;10.00;;
61188;SDS011;47054;39.716;2.904;2023-04-03T15:26:47;22.55;;;9.50;;
61188;SDS011;47054;39.716;2.904;2023-04-03T15:29:31;17.55;;;9.20;;
61188;SDS011;47054;39.716;2.904;2023-04-03T15:32:16;18.58;;;8.60;;
61188;SDS011;47054;39.716;2.904;2023-04-03T15:35:00;18.45;;;9.00;;
61188;SDS011;47054;39.716;2.904;2023-04-03T15:37:46;16.35;;;7.65;;
61188;SDS011;47054;39.716;2.904;2023-04-03T15:40:32;16.90;;;8.38;;
61188;SDS011;47054;39.716;2.904;2023-04-03T15:43:16;16.35;;;8.50;;
61188;SDS011;47054;39.716;2.904;2023-04-03T15:46:02;13.95;;;7.70;;
61188;SDS011;47054;39.716;2.904;2023-04-03T15:48:47;16.65;;;7.53;;
61188;SDS011;47054;39.716;2.904;2023-04-03T15:51:33;16.42;;;7.55;;
61188;SDS011;47054;39.716;2.904;2023-04-03T15:54:18;11.98;;;6.63;;
61188;SDS011;47054;39.716;2.904;2023-04-03T15:57:02;14.88;;;6.80;;
61188;SDS011;47054;39.716;2.904;2023-04-03T15:59:47;13.23;;;6.90;;
61188;SDS011;47054;39.716;2.904;2023-04-03T16:02:31;14.48;;;6.70;;
61188;SDS011;47054;39.716;2.904;2023-04-03T16:05:17;13.90;;;6.40;;
61188;SDS011;47054;39.716;2.904;2023-04-03T16:08:02;21.35;;;7.13;;
61188;SDS011;47054;39.716;2.904;2023-04-03T16:10:47;15.75;;;7.15;;
61188;SDS011;47054;39.716;2.904;2023-04-03T16:13:32;11.73;;;5.50;;
61188;SDS011;47054;39.716;2.904;2023-04-03T16:16:17;12.48;;;6.32;;
61188;SDS011;47054;39.716;2.904;2023-04-03T16:19:03;14.50;;;6.00;;
61188;SDS011;47054;39.716;2.904;2023-04-03T16:21:48;12.38;;;6.00;;
61188;SDS011;47054;39.716;2.904;2023-04-03T16:24:33;13.38;;;6.53;;
61188;SDS011;47054;39.716;2.904;2023-04-03T16:27:20;11.05;;;5.95;;
61188;SDS011;47054;39.716;2.904;2023-04-03T16:30:05;14.88;;;5.80;;
61188;SDS011;47054;39.716;2.904;2023-04-03T16:32:51;14.43;;;5.88;;
61188;SDS011;47054;39.716;2.904;2023-04-03T16:35:36;13.88;;;5.55;;
61188;SDS011;47054;39.716;2.904;2023-04-03T16:38:20;11.68;;;5.82;;
61188;SDS011;47054;39.716;2.904;2023-04-03T16:41:06;9.85;;;5.05;;
61188;SDS011;47054;39.716;2.904;2023-04-03T16:43:51;10.07;;;5.03;;
61188;SDS011;47054;39.716;2.904;2023-04-03T16:46:35;12.48;;;5.28;;
61188;SDS011;47054;39.716;2.904;2023-04-03T16:49:19;11.55;;;4.93;;
61188;SDS011;47054;39.716;2.904;2023-04-03T16:52:04;11.25;;;5.00;;
61188;SDS011;47054;39.716;2.904;2023-04-03T16:54:49;14.05;;;5.00;;
61188;SDS011;47054;39.716;2.904;2023-04-03T16:57:39;11.60;;;4.68;;
61188;SDS011;47054;39.716;2.904;2023-04-03T17:00:23;9.73;;;5.03;;
61188;SDS011;47054;39.716;2.904;2023-04-03T17:03:08;12.70;;;5.30;;
61188;SDS011;47054;39.716;2.904;2023-04-03T17:05:53;11.60;;;5.22;;
61188;SDS011;47054;39.716;2.904;2023-04-03T17:08:37;15.23;;;6.78;;
61188;SDS011;47054;39.716;2.904;2023-04-03T17:11:22;15.27;;;7.20;;
61188;SDS011;47054;39.716;2.904;2023-04-03T17:14:06;17.20;;;7.18;;
61188;SDS011;47054;39.716;2.904;2023-04-03T17:16:51;18.17;;;7.70;;
61188;SDS011;47054;39.716;2.904;2023-04-03T17:19:36;21.33;;;8.35;;
61188;SDS011;47054;39.716;2.904;2023-04-03T17:22:21;18.08;;;7.25;;
61188;SDS011;47054;39.716;2.904;2023-04-03T17:25:06;19.17;;;8.68;;
61188;SDS011;47054;39.716;2.904;2023-04-03T17:27:51;17.65;;;8.52;;
61188;SDS011;47054;39.716;2.904;2023-04-03T17:30:35;21.98;;;8.45;;
61188;SDS011;47054;39.716;2.904;2023-04-03T17:33:20;16.85;;;7.50;;
61188;SDS011;47054;39.716;2.904;2023-04-03T17:36:05;17.75;;;7.03;;
61188;SDS011;47054;39.716;2.904;2023-04-03T17:38:51;20.50;;;8.38;;
61188;SDS011;47054;39.716;2.904;2023-04-03T17:41:35;16.88;;;7.72;;
61188;SDS011;47054;39.716;2.904;2023-04-03T17:44:20;18.35;;;7.50;;
61188;SDS011;47054;39.716;2.904;2023-04-03T17:47:05;17.45;;;7.50;;
61188;SDS011;47054;39.716;2.904;2023-04-03T17:49:50;19.35;;;7.57;;
61188;SDS011;47054;39.716;2.904;2023-04-03T17:52:34;17.85;;;8.18;;
61188;SDS011;47054;39.716;2.904;2023-04-03T17:55:19;22.42;;;8.10;;
61188;SDS011;47054;39.716;2.904;2023-04-03T17:58:04;16.83;;;7.10;;
61188;SDS011;47054;39.716;2.904;2023-04-03T18:00:49;19.02;;;7.80;;